createdAt,value
2018-06-30T00:01:35.001Z,59.73
2018-06-30T00:04:04.441Z,59.16
2018-06-30T00:06:33.618Z,58.56
2018-06-30T00:09:03.070Z,58.80
2018-06-30T00:11:32.324Z,58.70
2018-06-30T00:14:01.606Z,59.08
2018-06-30T00:16:30.939Z,58.88
2018-06-30T00:19:00.185Z,59.10
2018-06-30T00:21:29.478Z,59.27
2018-06-30T00:23:58.668Z,59.34
2018-06-30T00:26:27.900Z,59.54
2018-06-30T00:28:57.048Z,58.92
2018-06-30T00:31:26.256Z,59.67
2018-06-30T00:33:55.466Z,59.40
2018-06-30T00:36:24.779Z,58.83
2018-06-30T00:38:53.984Z,58.60
2018-06-30T00:41:23.790Z,58.79
2018-06-30T00:43:53.084Z,58.99
2018-06-30T00:46:22.276Z,58.82
2018-06-30T00:48:52.714Z,59.38
2018-06-30T00:51:21.887Z,59.05
2018-06-30T00:53:51.308Z,60.07
2018-06-30T00:56:20.456Z,60.34
2018-06-30T00:58:49.873Z,60.13
2018-06-30T01:01:19.052Z,60.46
2018-06-30T01:03:48.316Z,60.63
2018-06-30T01:06:17.453Z,60.70
2018-06-30T01:08:47.217Z,60.82
2018-06-30T01:11:16.400Z,60.72
2018-06-30T01:13:45.697Z,61.80
2018-06-30T01:16:14.982Z,61.85
2018-06-30T01:18:44.227Z,61.49
2018-06-30T01:21:13.472Z,62.58
2018-06-30T01:23:42.753Z,62.05
2018-06-30T01:26:12.077Z,62.24
2018-06-30T01:28:41.391Z,61.48
2018-06-30T01:31:10.701Z,61.78
2018-06-30T01:33:40.297Z,62.49
2018-06-30T01:36:09.461Z,62.25
2018-06-30T01:38:38.643Z,61.68
2018-06-30T01:41:07.840Z,61.83
2018-06-30T01:43:37.186Z,62.04
2018-06-30T01:46:06.573Z,61.65
2018-06-30T01:48:35.886Z,61.82
2018-06-30T01:51:05.077Z,62.31
2018-06-30T01:53:34.367Z,61.35
2018-06-30T01:56:03.593Z,61.50
2018-06-30T01:58:32.915Z,61.38
2018-06-30T02:01:02.117Z,62.36
2018-06-30T02:03:31.509Z,62.62
2018-06-30T02:06:00.698Z,62.86
2018-06-30T02:08:29.881Z,63.20
2018-06-30T02:10:59.079Z,63.34
2018-06-30T02:13:28.402Z,63.36
2018-06-30T02:15:57.684Z,63.33
2018-06-30T02:18:26.984Z,62.81
2018-06-30T02:20:56.225Z,62.66
2018-06-30T02:23:25.585Z,62.44
2018-06-30T02:25:54.840Z,62.88
2018-06-30T02:28:24.023Z,63.11
2018-06-30T02:30:53.221Z,62.23
2018-06-30T02:33:22.405Z,63.38
2018-06-30T02:35:51.664Z,63.14
2018-06-30T02:38:20.872Z,63.08
2018-06-30T02:40:50.086Z,63.09
2018-06-30T02:43:19.230Z,63.60
2018-06-30T02:45:48.450Z,63.44
2018-06-30T02:48:18.131Z,62.75
2018-06-30T02:50:47.511Z,63.27
2018-06-30T02:53:16.676Z,63.92
2018-06-30T02:55:45.954Z,63.99
2018-06-30T02:58:15.360Z,63.99
2018-06-30T03:00:44.605Z,63.96
2018-06-30T03:03:13.850Z,63.12
2018-06-30T03:05:43.061Z,63.62
2018-06-30T03:08:12.382Z,63.67
2018-06-30T03:10:41.652Z,62.27
2018-06-30T03:13:10.954Z,62.55
2018-06-30T03:15:40.125Z,62.40
2018-06-30T03:18:09.449Z,62.31
2018-06-30T03:20:38.592Z,62.35
2018-06-30T03:23:08.231Z,62.36
2018-06-30T03:25:37.428Z,63.35
2018-06-30T03:28:06.656Z,62.95
2018-06-30T03:30:35.889Z,63.12
2018-06-30T03:33:05.473Z,63.83
2018-06-30T03:35:34.657Z,63.28
2018-06-30T03:38:03.956Z,63.13
2018-06-30T03:40:33.252Z,62.92
2018-06-30T03:43:02.464Z,62.47
2018-06-30T03:45:31.748Z,62.83
2018-06-30T03:48:00.873Z,62.20
2018-06-30T03:50:30.041Z,61.66
2018-06-30T03:52:59.201Z,62.05
2018-06-30T03:55:28.324Z,62.23
2018-06-30T03:57:58.396Z,61.84
2018-06-30T04:00:27.577Z,61.60
2018-06-30T04:02:56.715Z,61.09
2018-06-30T04:05:25.905Z,60.29
2018-06-30T04:07:55.085Z,60.63
2018-06-30T04:10:24.257Z,60.79
2018-06-30T04:12:53.449Z,60.33
2018-06-30T04:15:22.634Z,60.91
2018-06-30T04:17:51.819Z,61.53
2018-06-30T04:20:21.103Z,61.02
2018-06-30T04:22:50.382Z,61.09
2018-06-30T04:25:19.568Z,61.77
2018-06-30T04:27:48.721Z,60.55
2018-06-30T04:30:17.930Z,61.33
2018-06-30T04:32:47.069Z,60.73
2018-06-30T04:35:16.242Z,61.22
2018-06-30T04:37:45.393Z,60.58
2018-06-30T04:40:14.541Z,59.51
2018-06-30T04:42:43.761Z,60.50
2018-06-30T04:45:12.956Z,60.56
2018-06-30T04:47:42.952Z,60.29
2018-06-30T04:50:12.117Z,59.83
2018-06-30T04:52:41.525Z,59.82
2018-06-30T04:55:10.652Z,60.17
2018-06-30T04:57:39.834Z,60.38
2018-06-30T05:00:09.279Z,59.68
2018-06-30T05:02:38.490Z,59.82
2018-06-30T05:05:07.665Z,60.25
2018-06-30T05:07:36.993Z,60.43
2018-06-30T05:10:06.227Z,60.77
2018-06-30T05:12:35.389Z,61.43
2018-06-30T05:15:05.025Z,61.77
2018-06-30T05:17:34.220Z,60.35
2018-06-30T05:20:03.595Z,60.74
2018-06-30T05:22:32.746Z,59.81
2018-06-30T05:25:02.277Z,59.79
2018-06-30T05:27:31.420Z,60.18
2018-06-30T05:30:00.599Z,60.03
2018-06-30T05:32:29.717Z,60.11
2018-06-30T05:34:58.967Z,59.16
2018-06-30T05:37:28.145Z,59.71
2018-06-30T05:39:57.386Z,59.61
2018-06-30T05:42:26.675Z,59.35
2018-06-30T05:44:55.976Z,60.05
2018-06-30T05:47:25.184Z,58.99
2018-06-30T05:49:54.312Z,58.88
2018-06-30T05:52:23.509Z,57.92
2018-06-30T05:54:52.789Z,57.68
2018-06-30T05:57:22.064Z,57.37
2018-06-30T05:59:51.877Z,56.30
2018-06-30T06:02:21.072Z,56.05
2018-06-30T06:04:50.234Z,57.18
2018-06-30T06:07:19.445Z,56.22
2018-06-30T06:09:48.854Z,56.38
2018-06-30T06:12:18.134Z,55.46
2018-06-30T06:14:47.304Z,55.66
2018-06-30T06:17:16.607Z,56.25
2018-06-30T06:19:46.451Z,55.67
2018-06-30T06:22:16.001Z,54.52
2018-06-30T06:24:45.158Z,54.25
2018-06-30T06:27:14.371Z,54.62
2018-06-30T06:29:43.654Z,55.29
2018-06-30T06:32:12.871Z,55.78
2018-06-30T06:34:42.062Z,55.69
2018-06-30T06:37:11.305Z,56.95
2018-06-30T06:39:40.459Z,57.16
2018-06-30T06:42:09.661Z,56.56
2018-06-30T06:44:39.044Z,56.25
2018-06-30T06:47:08.254Z,56.04
2018-06-30T06:49:37.437Z,55.68
2018-06-30T06:52:06.696Z,55.77
2018-06-30T06:54:36.120Z,56.24
2018-06-30T06:57:05.324Z,54.83
2018-06-30T06:59:34.495Z,54.42
2018-06-30T07:02:03.761Z,55.69
2018-06-30T07:04:32.941Z,55.98
2018-06-30T07:07:02.358Z,54.99
2018-06-30T07:09:31.501Z,55.46
2018-06-30T07:12:00.745Z,55.19
2018-06-30T07:14:29.921Z,54.43
2018-06-30T07:16:59.243Z,56.02
2018-06-30T07:19:28.420Z,55.54
2018-06-30T07:21:57.693Z,55.79
2018-06-30T07:24:26.879Z,55.51
2018-06-30T07:26:56.213Z,54.26
2018-06-30T07:29:25.516Z,54.43
2018-06-30T07:31:54.816Z,52.90
2018-06-30T07:34:24.395Z,52.01
2018-06-30T07:36:53.730Z,50.69
2018-06-30T07:39:22.913Z,49.91
2018-06-30T07:41:52.239Z,50.26
2018-06-30T07:44:21.393Z,48.67
2018-06-30T07:46:50.743Z,48.28
2018-06-30T07:49:20.540Z,46.84
2018-06-30T07:51:50.255Z,44.71
2018-06-30T07:54:19.512Z,45.98
2018-06-30T07:56:48.770Z,43.96
2018-06-30T07:59:17.920Z,44.19
2018-06-30T08:01:48.374Z,43.85
2018-06-30T08:04:17.673Z,43.54
2018-06-30T08:06:46.994Z,45.08
2018-06-30T08:09:16.479Z,42.29
2018-06-30T08:11:45.896Z,40.72
2018-06-30T08:14:15.377Z,41.81
2018-06-30T08:16:44.601Z,41.66
2018-06-30T08:19:13.839Z,41.43
2018-06-30T08:21:43.236Z,39.83
2018-06-30T08:24:12.578Z,39.06
2018-06-30T08:26:41.848Z,40.36
2018-06-30T08:29:11.198Z,36.81
2018-06-30T08:31:40.346Z,36.51
2018-06-30T08:34:09.633Z,36.27
2018-06-30T08:36:38.926Z,36.71
2018-06-30T08:39:11.125Z,36.06
2018-06-30T08:41:40.329Z,34.21
2018-06-30T08:44:09.608Z,33.76
2018-06-30T08:46:39.393Z,33.81
2018-06-30T08:49:09.022Z,33.57
2018-06-30T08:51:38.206Z,33.30
2018-06-30T08:54:07.398Z,32.94
2018-06-30T08:56:36.529Z,34.34
2018-06-30T08:59:06.082Z,32.18
2018-06-30T09:01:35.355Z,31.57
2018-06-30T09:04:04.565Z,30.32
2018-06-30T09:06:33.855Z,31.41
2018-06-30T09:09:03.128Z,31.91
2018-06-30T09:11:32.289Z,28.52
2018-06-30T09:14:01.553Z,29.83
2018-06-30T09:16:30.804Z,31.64
2018-06-30T09:19:00.017Z,31.78
2018-06-30T09:21:29.262Z,29.25
2018-06-30T09:23:58.576Z,30.41
2018-06-30T09:26:27.708Z,29.70
2018-06-30T09:28:57.148Z,27.38
2018-06-30T09:31:26.506Z,28.46
2018-06-30T09:33:55.769Z,27.55
2018-06-30T09:36:24.909Z,28.41
2018-06-30T09:38:54.157Z,28.75
2018-06-30T09:41:23.722Z,30.26
2018-06-30T09:43:52.945Z,30.56
2018-06-30T09:46:22.318Z,27.50
2018-06-30T09:48:51.626Z,28.35
2018-06-30T09:51:20.989Z,27.64
2018-06-30T09:53:50.181Z,28.26
2018-06-30T09:56:19.437Z,26.81
2018-06-30T09:58:48.668Z,26.72
2018-06-30T10:01:18.015Z,27.92
2018-06-30T10:03:47.518Z,28.97
2018-06-30T10:06:16.729Z,28.57
2018-06-30T10:08:45.926Z,28.92
2018-06-30T10:11:19.032Z,28.40
2018-06-30T10:13:48.337Z,27.83
2018-06-30T10:16:17.828Z,27.73
2018-06-30T10:18:47.080Z,27.47
2018-06-30T10:21:16.779Z,27.00
2018-06-30T10:23:46.116Z,26.04
2018-06-30T10:26:15.237Z,26.55
2018-06-30T10:28:44.404Z,26.52
2018-06-30T10:31:13.596Z,25.77
2018-06-30T10:33:42.865Z,25.38
2018-06-30T10:36:12.120Z,27.90
2018-06-30T10:38:41.542Z,24.83
2018-06-30T10:41:10.925Z,24.96
2018-06-30T10:43:40.261Z,24.37
2018-06-30T10:46:09.441Z,26.23
2018-06-30T10:48:38.773Z,24.57
2018-06-30T10:51:07.991Z,26.01
2018-06-30T10:53:37.149Z,26.26
2018-06-30T10:56:06.379Z,23.96
2018-06-30T10:58:35.563Z,24.60
2018-06-30T11:01:04.897Z,25.11
2018-06-30T11:03:34.093Z,25.18
2018-06-30T11:06:03.367Z,24.71
2018-06-30T11:08:32.559Z,25.22
2018-06-30T11:11:01.863Z,27.64
2018-06-30T11:13:31.027Z,25.13
2018-06-30T11:16:00.286Z,25.60
2018-06-30T11:18:29.446Z,25.03
2018-06-30T11:20:58.782Z,25.21
2018-06-30T11:23:27.974Z,24.12
2018-06-30T11:25:57.205Z,25.19
2018-06-30T11:28:26.475Z,24.64
2018-06-30T11:30:55.815Z,24.62
2018-06-30T11:33:25.142Z,24.48
2018-06-30T11:35:54.337Z,23.70
2018-06-30T11:38:23.538Z,23.05
2018-06-30T11:40:52.945Z,24.56
2018-06-30T11:43:21.964Z,23.99
2018-06-30T11:45:51.162Z,24.48
2018-06-30T11:48:20.325Z,22.64
2018-06-30T11:50:49.707Z,24.38
2018-06-30T11:53:18.976Z,22.60
2018-06-30T11:55:48.196Z,22.27
2018-06-30T11:58:17.460Z,22.64
2018-06-30T12:00:46.855Z,22.80
2018-06-30T12:03:16.168Z,23.77
2018-06-30T12:05:45.576Z,21.14
2018-06-30T12:08:14.763Z,22.46
2018-06-30T12:10:43.964Z,22.48
2018-06-30T12:13:13.208Z,22.12
2018-06-30T12:15:42.470Z,21.43
2018-06-30T12:18:11.629Z,21.18
2018-06-30T12:20:40.842Z,21.02
2018-06-30T12:23:10.110Z,22.02
2018-06-30T12:25:39.333Z,22.14
2018-06-30T12:28:08.488Z,21.59
2018-06-30T12:30:37.823Z,21.68
2018-06-30T12:33:06.976Z,22.85
2018-06-30T12:35:36.220Z,19.50
2018-06-30T12:38:05.522Z,21.24
2018-06-30T12:40:34.702Z,21.08
2018-06-30T12:43:03.952Z,21.87
2018-06-30T12:45:33.244Z,20.89
2018-06-30T12:48:02.375Z,21.53
2018-06-30T12:50:31.579Z,21.89
2018-06-30T12:53:00.713Z,20.19
2018-06-30T12:55:29.964Z,20.74
2018-06-30T12:57:59.223Z,21.81
2018-06-30T13:00:28.416Z,21.67
2018-06-30T13:02:57.652Z,22.51
2018-06-30T13:05:27.046Z,23.34
2018-06-30T13:07:56.269Z,21.77
2018-06-30T13:10:25.419Z,20.75
2018-06-30T13:12:54.720Z,22.14
2018-06-30T13:15:24.057Z,21.07
2018-06-30T13:17:53.274Z,21.36
2018-06-30T13:20:22.491Z,21.34
2018-06-30T13:22:51.795Z,21.56
2018-06-30T13:25:21.014Z,21.87
2018-06-30T13:27:50.293Z,21.16
2018-06-30T13:30:19.461Z,22.88
2018-06-30T13:32:49.348Z,21.76
2018-06-30T13:35:18.793Z,22.88
2018-06-30T13:37:48.020Z,21.38
2018-06-30T13:40:17.300Z,22.13
2018-06-30T13:42:46.485Z,21.68
2018-06-30T13:45:15.636Z,20.68
2018-06-30T13:47:44.921Z,23.77
2018-06-30T13:50:14.053Z,21.14
2018-06-30T13:52:43.333Z,22.28
2018-06-30T13:55:12.561Z,22.13
2018-06-30T13:57:42.329Z,22.27
2018-06-30T14:00:11.546Z,22.37
2018-06-30T14:02:40.793Z,23.31
2018-06-30T14:05:09.918Z,23.88
2018-06-30T14:07:39.113Z,22.94
2018-06-30T14:10:08.785Z,22.65
2018-06-30T14:12:38.212Z,23.73
2018-06-30T14:15:08.825Z,22.60
2018-06-30T14:17:38.125Z,23.46
2018-06-30T14:20:08.713Z,24.89
2018-06-30T14:22:38.881Z,22.82
2018-06-30T14:25:08.281Z,23.12
2018-06-30T14:27:37.687Z,23.16
2018-06-30T14:30:09.616Z,22.90
2018-06-30T14:32:39.080Z,23.58
2018-06-30T14:35:08.881Z,23.02
2018-06-30T14:37:38.342Z,23.83
2018-06-30T14:40:08.616Z,23.34
2018-06-30T14:42:37.990Z,23.08
2018-06-30T14:45:07.319Z,21.81
2018-06-30T14:47:37.424Z,21.81
2018-06-30T14:50:06.674Z,23.13
2018-06-30T14:52:35.948Z,21.55
2018-06-30T14:55:05.722Z,23.14
2018-06-30T14:57:35.055Z,23.56
2018-06-30T15:00:05.145Z,23.23
2018-06-30T15:02:34.447Z,23.69
2018-06-30T15:05:03.665Z,23.22
2018-06-30T15:07:33.010Z,23.23
2018-06-30T15:10:02.145Z,21.88
2018-06-30T15:12:31.345Z,22.99
2018-06-30T15:15:00.574Z,23.10
2018-06-30T15:17:29.768Z,22.25
2018-06-30T15:19:58.985Z,21.84
2018-06-30T15:22:28.194Z,22.30
2018-06-30T15:24:57.312Z,22.93
2018-06-30T15:27:26.542Z,23.27
2018-06-30T15:29:55.669Z,22.66
2018-06-30T15:32:24.796Z,22.58
2018-06-30T15:34:54.098Z,22.43
2018-06-30T15:37:23.243Z,22.71
2018-06-30T15:39:52.505Z,22.97
2018-06-30T15:42:21.713Z,23.25
2018-06-30T15:44:51.112Z,23.24
2018-06-30T15:47:20.593Z,22.10
2018-06-30T15:49:49.806Z,22.31
2018-06-30T15:52:19.075Z,22.77
2018-06-30T15:54:48.527Z,23.06
2018-06-30T15:57:17.666Z,23.43
2018-06-30T15:59:46.969Z,22.56
2018-06-30T16:02:16.212Z,23.77
2018-06-30T16:04:45.948Z,20.95
2018-06-30T16:07:15.168Z,23.07
2018-06-30T16:09:44.430Z,23.88
2018-06-30T16:12:13.620Z,23.43
2018-06-30T16:14:42.894Z,23.48
2018-06-30T16:17:12.092Z,23.35
2018-06-30T16:19:41.389Z,24.34
2018-06-30T16:22:10.589Z,25.89
2018-06-30T16:24:39.773Z,24.76
2018-06-30T16:27:09.013Z,24.85
2018-06-30T16:29:38.184Z,25.36
2018-06-30T16:32:07.324Z,24.36
2018-06-30T16:34:36.543Z,24.63
2018-06-30T16:37:05.714Z,25.50
2018-06-30T16:39:34.905Z,24.93
2018-06-30T16:42:04.169Z,25.10
2018-06-30T16:44:33.321Z,27.04
2018-06-30T16:47:02.523Z,26.36
2018-06-30T16:49:31.645Z,26.32
2018-06-30T16:52:01.031Z,26.58
2018-06-30T16:54:30.197Z,25.86
2018-06-30T16:56:59.333Z,25.33
2018-06-30T16:59:28.510Z,24.70
2018-06-30T17:01:57.918Z,25.25
2018-06-30T17:04:27.045Z,25.37
2018-06-30T17:06:56.183Z,25.19
2018-06-30T17:09:25.540Z,25.65
2018-06-30T17:11:54.762Z,25.20
2018-06-30T17:14:23.992Z,25.38
2018-06-30T17:16:53.181Z,25.17
2018-06-30T17:19:22.357Z,25.33
2018-06-30T17:21:51.581Z,25.57
2018-06-30T17:24:20.744Z,25.24
2018-06-30T17:26:49.936Z,26.21
2018-06-30T17:29:19.133Z,25.37
2018-06-30T17:31:48.334Z,26.77
2018-06-30T17:34:17.818Z,26.61
2018-06-30T17:36:47.051Z,26.82
2018-06-30T17:39:16.221Z,26.16
2018-06-30T17:41:45.460Z,26.31
2018-06-30T17:44:14.712Z,26.54
2018-06-30T17:46:43.841Z,27.10
2018-06-30T17:49:13.023Z,27.40
2018-06-30T17:51:42.165Z,27.33
2018-06-30T17:54:11.333Z,27.89
2018-06-30T17:56:40.456Z,27.67
2018-06-30T17:59:09.626Z,27.54
2018-06-30T18:01:38.773Z,26.73
2018-06-30T18:04:07.983Z,27.99
2018-06-30T18:06:37.296Z,29.36
2018-06-30T18:09:09.107Z,28.58
2018-06-30T18:11:38.364Z,28.37
2018-06-30T18:14:07.857Z,28.39
2018-06-30T18:16:37.502Z,29.31
2018-06-30T18:19:06.828Z,28.73
2018-06-30T18:21:36.061Z,29.71
2018-06-30T18:24:05.251Z,29.60
2018-06-30T18:26:34.501Z,29.50
2018-06-30T18:29:03.865Z,29.78
2018-06-30T18:31:33.112Z,30.11
2018-06-30T18:34:02.718Z,29.02
2018-06-30T18:36:32.036Z,29.84
2018-06-30T18:39:01.305Z,29.67
2018-06-30T18:41:30.561Z,30.12
2018-06-30T18:43:59.868Z,30.03
2018-06-30T18:46:29.147Z,30.46
2018-06-30T18:48:58.335Z,30.46
2018-06-30T18:51:28.460Z,30.54
2018-06-30T18:53:57.897Z,31.02
2018-06-30T18:56:27.209Z,31.36
2018-06-30T18:58:56.432Z,31.59
2018-06-30T19:01:25.674Z,32.36
2018-06-30T19:03:54.958Z,31.74
2018-06-30T19:06:24.290Z,31.77
2018-06-30T19:08:53.461Z,32.34
2018-06-30T19:11:22.756Z,32.80
2018-06-30T19:13:51.907Z,32.74
2018-06-30T19:16:21.224Z,32.88
2018-06-30T19:18:50.381Z,33.40
2018-06-30T19:21:19.613Z,33.49
2018-06-30T19:23:48.777Z,33.66
2018-06-30T19:26:18.168Z,34.23
2018-06-30T19:28:47.394Z,34.33
2018-06-30T19:31:16.618Z,34.45
2018-06-30T19:33:46.045Z,35.14
2018-06-30T19:36:15.573Z,34.87
2018-06-30T19:38:44.871Z,35.24
2018-06-30T19:41:14.084Z,34.95
2018-06-30T19:43:43.258Z,34.93
2018-06-30T19:46:14.468Z,35.51
2018-06-30T19:48:43.893Z,35.04
2018-06-30T19:51:13.261Z,35.85
2018-06-30T19:53:42.421Z,35.52
2018-06-30T19:56:11.630Z,36.02
2018-06-30T19:58:40.885Z,36.97
2018-06-30T20:01:10.085Z,35.94
2018-06-30T20:03:39.920Z,36.70
2018-06-30T20:06:09.301Z,36.48
2018-06-30T20:08:39.553Z,36.33
2018-06-30T20:11:09.071Z,36.61
2018-06-30T20:13:38.445Z,36.04
2018-06-30T20:16:07.691Z,37.23
2018-06-30T20:18:37.623Z,36.82
2018-06-30T20:21:07.941Z,36.83
2018-06-30T20:23:37.285Z,37.56
2018-06-30T20:26:06.867Z,37.40
2018-06-30T20:28:36.792Z,37.10
2018-06-30T20:31:06.072Z,36.80
2018-06-30T20:33:35.408Z,37.50
2018-06-30T20:36:04.890Z,37.00
2018-06-30T20:38:34.300Z,37.02
2018-06-30T20:41:03.520Z,36.83
2018-06-30T20:43:32.853Z,37.32
2018-06-30T20:46:02.313Z,36.95
2018-06-30T20:48:31.699Z,37.04
2018-06-30T20:51:00.914Z,36.63
2018-06-30T20:53:31.210Z,37.11
2018-06-30T20:56:00.532Z,38.65
2018-06-30T20:58:30.035Z,39.97
2018-06-30T21:00:59.541Z,38.26
2018-06-30T21:03:28.849Z,38.65
2018-06-30T21:05:58.143Z,38.09
2018-06-30T21:08:27.430Z,38.16
2018-06-30T21:10:56.744Z,38.39
2018-06-30T21:13:26.339Z,38.36
2018-06-30T21:15:56.172Z,39.59
2018-06-30T21:18:25.406Z,39.63
2018-06-30T21:20:54.751Z,40.05
2018-06-30T21:23:25.082Z,39.85
2018-06-30T21:25:54.980Z,39.99
2018-06-30T21:28:24.269Z,40.66
2018-06-30T21:30:53.777Z,41.05
2018-06-30T21:33:23.098Z,42.21
2018-06-30T21:35:52.476Z,41.45
2018-06-30T21:38:21.801Z,41.61
2018-06-30T21:40:51.027Z,41.78
2018-06-30T21:43:20.499Z,41.31
2018-06-30T21:45:49.905Z,41.24
2018-06-30T21:48:19.185Z,41.37
2018-06-30T21:50:48.905Z,40.46
2018-06-30T21:53:18.293Z,40.85
2018-06-30T21:55:47.716Z,42.36
2018-06-30T21:58:16.949Z,42.65
2018-06-30T22:00:51.844Z,43.30
2018-06-30T22:03:25.985Z,42.92
2018-06-30T22:05:56.486Z,42.11
2018-06-30T22:08:25.906Z,42.83
2018-06-30T22:10:55.585Z,43.22
2018-06-30T22:13:25.176Z,43.93
2018-06-30T22:15:54.609Z,44.12
2018-06-30T22:18:24.274Z,44.50
2018-06-30T22:20:53.622Z,43.68
2018-06-30T22:23:23.115Z,43.86
2018-06-30T22:25:52.370Z,43.28
2018-06-30T22:28:22.027Z,44.94
2018-06-30T22:30:51.231Z,45.40
2018-06-30T22:33:20.537Z,46.00
2018-06-30T22:35:49.786Z,45.31
2018-06-30T22:38:19.409Z,44.99
2018-06-30T22:40:48.587Z,44.34
2018-06-30T22:43:18.357Z,44.26
2018-06-30T22:45:47.561Z,44.55
2018-06-30T22:48:16.712Z,45.80
2018-06-30T22:50:45.954Z,45.68
2018-06-30T22:53:15.160Z,46.70
2018-06-30T22:55:44.390Z,46.26
2018-06-30T22:58:13.573Z,46.96
2018-06-30T23:00:42.773Z,47.20
2018-06-30T23:03:12.749Z,48.02
2018-06-30T23:05:42.625Z,48.34
2018-06-30T23:08:11.842Z,48.34
2018-06-30T23:10:41.077Z,48.65
2018-06-30T23:13:10.223Z,49.66
2018-06-30T23:15:39.462Z,49.38
2018-06-30T23:18:08.732Z,49.50
2018-06-30T23:20:38.127Z,49.94
2018-06-30T23:23:08.646Z,49.80
2018-06-30T23:25:38.530Z,49.64
2018-06-30T23:28:08.173Z,49.68
2018-06-30T23:30:37.668Z,49.75
2018-06-30T23:33:06.943Z,49.04
2018-06-30T23:35:36.236Z,48.50
2018-06-30T23:38:05.587Z,49.10
2018-06-30T23:40:34.873Z,49.40
2018-06-30T23:43:04.182Z,48.72
2018-06-30T23:45:33.429Z,48.81
2018-06-30T23:48:02.790Z,49.33
2018-06-30T23:50:32.025Z,49.18
2018-06-30T23:53:01.284Z,49.43
2018-06-30T23:55:30.586Z,50.00
2018-06-30T23:57:59.879Z,50.44
